Flight Track Log - Related Links

Times and Time Zones

All times are in EDT time to prevent confusion due to time zone crossing. See the DAL1095 flight status page for this flight to view local times or setup timezone preferences in your user account.

Time Position Orientation Groundspeed Altitude Reporting Facility
EDT Latitude Longitude Course Direction KTS MPH feet Rate Location/Type
Sat 01:07:56 PM 35.1892 -80.9508 266° West 162 186 1,600  Level Atlanta Center
Sat 01:08:38 PM 35.1536 -80.9522 182° South 187 215 2,600 2,097 Climbing Atlanta Center
Sat 01:09:39 PM 35.0961 -80.9825 203° Southwest 253 291 5,200 2,637 Climbing Atlanta Center
Sat 01:10:00 PM 35.0607 -81.3024 239° Southwest  Level Estimated
Sat 01:10:09 PM 35.0908 -81.0258 262° West 283 326 6,600  Level Atlanta Center
Sat 01:11:00 PM 35.0095 -81.4199 270° West  Level Estimated
Sat 01:11:09 PM 35.0931 -81.1144 272° West 290 334 9,200  Level Atlanta Center
Sat 01:12:00 PM 34.9582 -81.5372 259° West  Level Estimated
Sat 01:12:09 PM 35.1242 -81.2022 293° West 280 322 11,400  Level Atlanta Center
Sat 01:13:00 PM 34.9067 -81.6544 266° West  Level Estimated
Sat 01:13:09 PM 35.1369 -81.3033 279° West 294 338 13,700  Level Atlanta Center
Sat 01:14:09 PM 35.1433 -81.4100 274° West 322 371 14,800 1,450 Climbing Atlanta Center
Sat 01:15:09 PM 35.1358 -81.5397 266° West 369 425 16,600 1,950 Climbing Atlanta Center
Sat 01:16:09 PM 35.1028 -81.6650 252° West 392 451 18,700 1,900 Climbing Atlanta Center
Sat 01:17:09 PM 35.0719 -81.8006 255° West 407 468 20,400 1,650 Climbing Atlanta Center
Sat 01:18:09 PM 35.0389 -81.9358 253° West 414 476 22,000 1,550 Climbing Atlanta Center
Sat 01:19:09 PM 35.0017 -82.0889 254° West 425 489 23,500 1,450 Climbing Atlanta Center
Sat 01:20:09 PM 34.9664 -82.2292 253° West 430 495 24,900 1,550 Climbing Atlanta Center
Sat 01:21:09 PM 34.9328 -82.3617 253° West 430 495 26,600 1,550 Climbing Atlanta Center
Sat 01:22:09 PM 34.8969 -82.5017 253° West 430 495 28,000 700 Climbing Atlanta Center
Sat 01:23:09 PM 34.8547 -82.6314 248° West 424 488 28,000  Level Atlanta Center
Sat 01:24:09 PM 34.7831 -82.7489 233° Southwest 424 488 28,000  Level Atlanta Center
Sat 01:25:09 PM 34.7092 -82.8664 233° Southwest 436 502 28,000 -250 Level Atlanta Center
Sat 01:26:09 PM 34.6308 -82.9811 230° Southwest 452 520 27,500 -1,000 Descending Atlanta Center
Sat 01:27:09 PM 34.5586 -83.1006 234° Southwest 446 513 26,000 -1,850 Descending Atlanta Center
Sat 01:28:09 PM 34.4947 -83.1994 232° Southwest 435 501 23,800 -2,400 Descending Atlanta Center
Sat 01:29:09 PM 34.4267 -83.3086 233° Southwest 422 486 21,200 -2,550 Descending Atlanta Center
Sat 01:30:09 PM 34.3625 -83.4147 234° Southwest 408 470 18,700 -2,400 Descending Atlanta Center
Sat 01:31:09 PM 34.2983 -83.5133 232° Southwest 388 447 16,400 -2,300 Descending Atlanta Center
Sat 01:32:09 PM 34.2381 -83.6067 232° Southwest 367 422 14,100 -2,150 Descending Atlanta Center
Sat 01:33:09 PM 34.1800 -83.6997 233° Southwest 357 411 12,100 -1,050 Descending Atlanta Center
Sat 01:34:09 PM 34.1175 -83.7953 232° Southwest 351 404 12,000 -150 Descending Atlanta Center
Sat 01:35:09 PM 34.0697 -83.8658 231° Southwest 311 358 11,800 -923 Descending Atlanta Center
Sat 01:35:53 PM 34.0333 -83.9167 229° Southwest 265 305 10,400 -1,653 Descending Atlanta TRACON
Sat 01:36:47 PM 33.9833 -83.9667 220° Southwest 263 303 9,100 -737 Descending Atlanta TRACON
Sat 01:37:47 PM 33.9167 -83.9667 180° South 269 310 9,000 -50 Descending Atlanta TRACON
Sat 01:38:47 PM 33.8333 -83.9667 180° South 268 308 9,000 -263 Level Atlanta TRACON
Sat 01:39:41 PM 33.7667 -83.9667 180° South 270 311 8,500 -1,000 Descending Atlanta TRACON
Sat 01:40:41 PM 33.7000 -83.9833 192° South 255 293 7,100 -750 Descending Atlanta TRACON
Sat 01:41:41 PM 33.6333 -84.0167 203° Southwest 253 291 7,000 -450 Descending Atlanta TRACON
Sat 01:42:41 PM 33.6333 -84.0833 270° West 201 231 6,200 -850 Descending Atlanta TRACON
Sat 01:43:41 PM 33.6333 -84.1500 270° West 162 186 5,300 -800 Descending Atlanta TRACON
Sat 01:44:41 PM 33.6333 -84.2000 270° West 160 184 4,600 -800 Descending Atlanta TRACON
Sat 01:45:41 PM 33.6333 -84.2500 270° West 162 186 3,700 -900 Descending Atlanta TRACON
Sat 01:46:41 PM 33.6333 -84.3000 270° West 159 183 2,800 -800 Descending Atlanta TRACON
Sat 01:47:41 PM 33.6333 -84.3500 270° West 147 169 2,100 -750 Descending Atlanta TRACON
Sat 01:48:41 PM 33.6333 -84.4000 270° West 156 180 1,300 -800 Descending Atlanta TRACON

Login

Don't have an account? Register now (free) for customized features, flight alerts, and more!